KFSD/FSD METAR and TAF weather

Enter ICAO airport designator
Station Type Date Time Source
KFSD METAR 2018/12/15 03:56 UTC NOAA

KFSD 150356Z 00000KT 10SM CLR M03/M04 A3019 RMK AO2 SLP241 I1000 T10281039


Station Type Date Time Source
KFSD Decoded METAR 2018/12/15 03:56 UTC NOAA

SIOUX FALLS FOSS FIELD, SD, United States (KFSD) 43-35N 096-45W 434M
Dec 14, 2018 - 10:56 PM EST / 2018.12.15 0356 UTC
Wind: Calm:0
Visibility: 10 mile(s):0
Sky conditions: clear
Temperature: 27.0 F (-2.8 C)
Dew Point: 25.0 F (-3.9 C)
Relative Humidity: 92%
Pressure (altimeter): 30.19 in. Hg (1022 hPa)
ob: KFSD 150356Z 00000KT 10SM CLR M03/M04 A3019 RMK AO2 SLP241 I1000 T10281039
cycle: 4

Station Type Date Time Source
KFSD TAF 2018/12/14 18:22 UTC NOAA

TAF KFSD 141720Z 1418/1518 24005KT P6SM SKC
FM150000 00000KT P6SM SKC
FM151400 17005KT P6SM SKC


Example: see airport list